LLBG

Ben Gurion International Airport

Tel Aviv, Israel
METAR LLBG 171020Z 18014KT 9999 FEW012 14/11 Q1016 NOSIG
Observed Flight Rules
Jan-17 @ 10:20 UTC (33 minutes ago) Visual Flight Rules
Wind Visibility Clouds
180° at 14 knots 10,000+ meters
  • Few at 1,200' AGL
Temperatures Readings
Current 14°C / 57°F
Dewpoint 11°C / 52°F
Humidity 82%
Altimeter 30" Hg
Pressure 1016 hPa
Elevation 49
METAR LLBG 171020Z 18014KT 9999 FEW012 14/11 Q1016 NOSIG
Observed Flight Rules
Jan-17 @ 10:20 UTC
(33 minutes ago)
VFR
Wind Visibility
180° at 14 knots 10,000+ meters
Clouds
  • Few at 1,200' AGL
Temperature Dewpoint
14°C / 57°F 11°C / 52°F
Humidity Altimeter Pressure
82% 30" Hg 1016 hPa